Coastal Nomad — WDC6439 — position and weather

sailwx.info

Track history (hours):
 
Tides and Currents Weather Stations Pressure Air Temp Water Temp Dewpoint Dewpoint Depression Visibility Wind Speed Wind Dir Waves Ship Positions

Coastal Nomad

Owner: Coastal Transportation, Inc., Seattle, WA. More information available from US FCC via Universal Licensing System and Coast Guard Vessel Documentation Center.

Last reported at 2016-Nov-28 20:00 UTC. Time now 2016-Dec-06 16:03 UTC.
Position N 54°12' W 166°36'.

Length 74 m; draft 4 m.

Type: Cargo ship. MMSI: 303683000.

Wind from 280 at 40 knots

Barometer 992.0 mb
Air temperature 2.2 ° C
Visibility: greater than 5.4 NM

Date/timePositionNaut miles runAvg speedWind from/ knotsBaromVisibWave heightAir tempDewpointWater temp
2016-Nov-28 20:00N 54°12' W 166°36'   280 / 40992.0 5.4 2.2
2016-Nov-22 18:00N 57°06' W 145°24'27512.0 120 / 25981.0 5.4 5.6
2016-Nov-21 19:00N 55°06' W 138°00'43511.3 140 / 35985.0 5.4 7.2
2016-Nov-20 04:25N 51°09' W 127°51'1112.8
2016-Nov-20 03:33N 51°02' W 127°38'2612.8
2016-Nov-20 01:33N 50°47' W 127°05'9912.3
2016-Nov-19 17:33N 49°52' W 124°57'1312.6
2016-Nov-19 16:33N 49°44' W 124°42'2613.0
2016-Nov-19 14:34N 49°29' W 124°09'3913.0
2016-Nov-19 11:33N 49°05' W 123°22'2512.2
2016-Nov-19 09:29N 48°48' W 122°53'17 8.8
2016-Nov-19 07:33N 48°32' W 122°45'2210.3
2016-Nov-19 05:26N 48°10' W 122°44'1213.9
2016-Nov-19 04:33N 47°60' W 122°36'1312.6
2016-Nov-19 03:33N 47°49' W 122°27'1111.1
2016-Nov-19 02:34N 47°38' W 122°24'1 0.7
2016-Nov-19 01:33N 47°38' W 122°23'0 0.0
2016-Nov-19 00:33N 47°38' W 122°23'0 0.0
2016-Nov-18 23:33N 47°38' W 122°23'0 0.0
2016-Nov-18 20:33N 47°38' W 122°23'  
Track history (hours):
 
Tides and Currents Weather Stations Pressure Air Temp Water Temp Dewpoint Dewpoint Depression Visibility Wind Speed Wind Dir Waves Ship Positions

Coastal Nomad

Owner: Coastal Transportation, Inc., Seattle, WA. More information available from US FCC via Universal Licensing System and Coast Guard Vessel Documentation Center.

Last reported at 2016-Nov-28 20:00 UTC. Time now 2016-Dec-06 16:03 UTC.
Position N 54°12' W 166°36'.

Length 74 m; draft 4 m.

Type: Cargo ship. MMSI: 303683000.

Wind from 280 at 40 knots

Barometer 992.0 mb
Air temperature 2.2 ° C
Visibility: greater than 5.4 NM

Date/timePositionNaut miles runAvg speedWind from/ knotsBaromVisibWave heightAir tempDewpointWater temp
2016-Nov-28 20:00N 54°12' W 166°36'   280 / 40992.0 5.4 2.2
2016-Nov-22 18:00N 57°06' W 145°24'27512.0 120 / 25981.0 5.4 5.6
2016-Nov-21 19:00N 55°06' W 138°00'43511.3 140 / 35985.0 5.4 7.2
2016-Nov-20 04:25N 51°09' W 127°51'1112.8
2016-Nov-20 03:33N 51°02' W 127°38'2612.8
2016-Nov-20 01:33N 50°47' W 127°05'9912.3
2016-Nov-19 17:33N 49°52' W 124°57'1312.6
2016-Nov-19 16:33N 49°44' W 124°42'2613.0
2016-Nov-19 14:34N 49°29' W 124°09'3913.0
2016-Nov-19 11:33N 49°05' W 123°22'2512.2
2016-Nov-19 09:29N 48°48' W 122°53'17 8.8
2016-Nov-19 07:33N 48°32' W 122°45'2210.3
2016-Nov-19 05:26N 48°10' W 122°44'1213.9
2016-Nov-19 04:33N 47°60' W 122°36'1312.6
2016-Nov-19 03:33N 47°49' W 122°27'1111.1
2016-Nov-19 02:34N 47°38' W 122°24'1 0.7
2016-Nov-19 01:33N 47°38' W 122°23'0 0.0
2016-Nov-19 00:33N 47°38' W 122°23'0 0.0
2016-Nov-18 23:33N 47°38' W 122°23'0 0.0
2016-Nov-18 20:33N 47°38' W 122°23'  

Dump ship's entire track history